Time;durP1;ratioP1;P1;durP2;ratioP2;P2;SDS_P1;SDS_P2;PMS_P1;PMS_P2;Temp;Humidity;BMP_temperature;BMP_pressure;BME280_temperature;BME280_humidity;BME280_pressure;Samples;Min_cycle;Max_cycle;Signal;HPM_P1;HPM_P2
2022/08/20 00:00:14;;;;;;;5.00;4.55;;;;;;;;;;4985998;28;20094;-68
2022/08/20 00:02:41;;;;;;;4.85;4.40;;;;;;;;;;4986434;28;20121;-69
2022/08/20 00:05:06;;;;;;;5.07;4.57;;;;;;;;;;4985779;28;20083;-69
2022/08/20 00:07:31;;;;;;;5.78;5.22;;;;;;;;;;4986071;28;20026;-68
2022/08/20 00:09:57;;;;;;;7.18;4.85;;;;;;;;;;4986656;28;20117;-68
2022/08/20 00:12:25;;;;;;;5.50;5.00;;;;;;;;;;4985323;28;20473;-68
2022/08/20 00:14:50;;;;;;;6.03;5.43;;;;;;;;;;4984858;28;20045;-68
2022/08/20 00:17:15;;;;;;;5.93;5.45;;;;;;;;;;4985260;28;20039;-69
2022/08/20 00:19:41;;;;;;;4.80;4.50;;;;;;;;;;4986245;28;20057;-68
2022/08/20 00:22:06;;;;;;;5.93;5.43;;;;;;;;;;4985751;28;20035;-67
2022/08/20 00:24:31;;;;;;;5.70;5.20;;;;;;;;;;4986185;28;20511;-67
2022/08/20 00:26:57;;;;;;;7.03;5.45;;;;;;;;;;4985317;28;20113;-67
2022/08/20 00:29:22;;;;;;;6.00;5.50;;;;;;;;;;4982682;28;20023;-67
2022/08/20 00:31:47;;;;;;;6.05;5.55;;;;;;;;;;4980795;28;20062;-68
2022/08/20 00:34:13;;;;;;;5.75;5.25;;;;;;;;;;4985301;28;20481;-67
2022/08/20 00:36:38;;;;;;;5.95;5.40;;;;;;;;;;4984428;28;20034;-66
2022/08/20 00:39:03;;;;;;;5.57;4.97;;;;;;;;;;4981265;28;21117;-67
2022/08/20 00:41:29;;;;;;;5.78;5.28;;;;;;;;;;4980564;28;20042;-67
2022/08/20 00:44:15;;;;;;;4.93;4.45;;;;;;;;;;4981165;28;20535;-67
2022/08/20 00:46:40;;;;;;;;;;;;;;;;;;4985265;28;20030;-68
2022/08/20 00:49:07;;;;;;;5.00;4.60;;;;;;;;;;4983757;28;19917;-67
2022/08/20 00:51:37;;;;;;;4.55;4.18;;;;;;;;;;4980984;28;20153;-68
2022/08/20 00:54:08;;;;;;;4.50;4.20;;;;;;;;;;4980655;28;20048;-67
2022/08/20 00:56:34;;;;;;;4.10;3.55;;;;;;;;;;4982203;28;20069;-67
2022/08/20 00:59:00;;;;;;;4.93;4.53;;;;;;;;;;4968695;28;20145;-68
2022/08/20 01:01:26;;;;;;;4.43;4.00;;;;;;;;;;4985125;28;20034;-67
2022/08/20 01:03:55;;;;;;;4.38;4.05;;;;;;;;;;4966504;28;20089;-67
2022/08/20 01:06:20;;;;;;;4.22;3.92;;;;;;;;;;4984284;28;20033;-69
2022/08/20 01:08:46;;;;;;;4.05;3.75;;;;;;;;;;4985083;28;20026;-70
2022/08/20 01:11:20;;;;;;;5.07;4.72;;;;;;;;;;4984050;28;20026;-69
2022/08/20 01:13:46;;;;;;;5.47;4.97;;;;;;;;;;4984580;28;20480;-69
2022/08/20 01:16:24;;;;;;;4.40;4.13;;;;;;;;;;4984437;28;20112;-68
2022/08/20 01:18:50;;;;;;;4.13;3.83;;;;;;;;;;4984093;28;20026;-69
2022/08/20 01:21:19;;;;;;;4.57;3.85;;;;;;;;;;4967247;28;20046;-70
2022/08/20 01:24:04;;;;;;;4.47;4.15;;;;;;;;;;4967104;28;20077;-69
2022/08/20 01:26:33;;;;;;;4.32;3.92;;;;;;;;;;4982664;28;20030;-69
2022/08/20 01:29:04;;;;;;;4.22;3.63;;;;;;;;;;4980370;28;20120;-68
2022/08/20 01:31:30;;;;;;;3.83;3.53;;;;;;;;;;4979656;28;20504;-69
2022/08/20 01:33:56;;;;;;;4.25;3.60;;;;;;;;;;4979865;28;20441;-68
2022/08/20 01:36:29;;;;;;;3.97;3.63;;;;;;;;;;4967473;28;20132;-68
2022/08/20 01:38:54;;;;;;;3.67;3.38;;;;;;;;;;4983475;28;20022;-68
2022/08/20 01:41:25;;;;;;;4.13;3.83;;;;;;;;;;4984154;28;20039;-68
2022/08/20 01:43:55;;;;;;;3.80;3.60;;;;;;;;;;4952411;28;20061;-68
2022/08/20 01:46:22;;;;;;;3.60;3.40;;;;;;;;;;4979906;28;20026;-69
2022/08/20 01:48:47;;;;;;;5.05;3.75;;;;;;;;;;4979971;28;20054;-69
2022/08/20 01:51:15;;;;;;;4.20;3.72;;;;;;;;;;4985165;28;20062;-69
2022/08/20 01:53:42;;;;;;;6.05;3.90;;;;;;;;;;4983157;28;20268;-69
2022/08/20 01:56:10;;;;;;;3.97;3.47;;;;;;;;;;4982059;28;20049;-68
2022/08/20 01:58:37;;;;;;;3.65;3.45;;;;;;;;;;4979269;28;20026;-68
2022/08/20 02:01:03;;;;;;;3.42;3.22;;;;;;;;;;4983591;28;20031;-69
2022/08/20 02:03:29;;;;;;;3.42;3.13;;;;;;;;;;4983940;28;20076;-68
2022/08/20 02:05:54;;;;;;;4.30;3.90;;;;;;;;;;4980789;28;20038;-68
2022/08/20 02:08:20;;;;;;;3.90;3.60;;;;;;;;;;4962668;28;20090;-67
2022/08/20 02:10:47;;;;;;;3.75;3.45;;;;;;;;;;4984151;28;20053;-67
2022/08/20 02:13:12;;;;;;;3.17;2.97;;;;;;;;;;4982340;28;20096;-67
2022/08/20 02:15:38;;;;;;;3.22;3.03;;;;;;;;;;4979208;28;20466;-68
2022/08/20 02:18:04;;;;;;;3.40;3.15;;;;;;;;;;4979340;28;20119;-69
2022/08/20 02:20:30;;;;;;;3.00;2.80;;;;;;;;;;4979147;28;20034;-68
2022/08/20 02:22:57;;;;;;;3.13;2.88;;;;;;;;;;4980618;28;20038;-68
2022/08/20 02:25:24;;;;;;;3.60;3.40;;;;;;;;;;4982119;28;20057;-68
2022/08/20 02:27:50;;;;;;;3.65;3.38;;;;;;;;;;4979617;28;20033;-69
2022/08/20 02:30:28;;;;;;;3.03;2.83;;;;;;;;;;4964481;28;20099;-68
2022/08/20 02:32:54;;;;;;;3.13;2.90;;;;;;;;;;4958292;28;20058;-69
2022/08/20 02:35:19;;;;;;;3.15;2.90;;;;;;;;;;4961186;28;20569;-68
2022/08/20 02:37:45;;;;;;;2.95;2.75;;;;;;;;;;4966587;28;20465;-68
2022/08/20 02:40:16;;;;;;;2.88;2.50;;;;;;;;;;4966854;28;20484;-68
2022/08/20 02:42:42;;;;;;;2.83;2.67;;;;;;;;;;4978308;28;20329;-69
2022/08/20 02:45:09;;;;;;;2.90;2.33;;;;;;;;;;4963532;28;20037;-68
2022/08/20 02:47:35;;;;;;;2.50;2.40;;;;;;;;;;4966094;28;20023;-68
2022/08/20 02:50:03;;;;;;;2.45;2.25;;;;;;;;;;4967964;28;20041;-68
2022/08/20 02:52:28;;;;;;;2.72;2.53;;;;;;;;;;4965871;28;20085;-68
2022/08/20 02:54:54;;;;;;;2.88;2.72;;;;;;;;;;4962431;28;20070;-68
2022/08/20 02:57:19;;;;;;;2.55;2.35;;;;;;;;;;4962561;28;20069;-68
2022/08/20 02:59:45;;;;;;;2.83;2.50;;;;;;;;;;4966001;28;20157;-68
2022/08/20 03:02:10;;;;;;;2.33;2.13;;;;;;;;;;4968647;28;20042;-69
2022/08/20 03:04:36;;;;;;;2.17;2.00;;;;;;;;;;4963367;28;20076;-68
2022/08/20 03:07:02;;;;;;;2.20;2.00;;;;;;;;;;4963947;28;20463;-68
2022/08/20 03:09:28;;;;;;;2.25;2.05;;;;;;;;;;4966155;28;20564;-68
2022/08/20 03:11:56;;;;;;;2.22;2.13;;;;;;;;;;4966564;28;20062;-68
2022/08/20 03:14:21;;;;;;;2.92;2.72;;;;;;;;;;4967418;28;20070;-68
2022/08/20 03:16:46;;;;;;;2.22;2.13;;;;;;;;;;4965577;28;20456;-68
2022/08/20 03:19:12;;;;;;;2.03;1.92;;;;;;;;;;4967058;28;20292;-68
2022/08/20 03:21:38;;;;;;;2.28;2.00;;;;;;;;;;4967407;28;20122;-67
2022/08/20 03:24:03;;;;;;;2.35;2.25;;;;;;;;;;4967540;28;20023;-67
2022/08/20 03:26:28;;;;;;;2.25;2.13;;;;;;;;;;4981458;28;20033;-68
2022/08/20 03:28:53;;;;;;;2.08;1.98;;;;;;;;;;4967679;28;20023;-68
2022/08/20 03:31:19;;;;;;;2.08;1.98;;;;;;;;;;4966413;28;20090;-68
2022/08/20 03:33:44;;;;;;;1.92;1.90;;;;;;;;;;4985804;28;20058;-68
2022/08/20 03:36:09;;;;;;;3.70;2.63;;;;;;;;;;4985538;28;20034;-67
2022/08/20 03:38:35;;;;;;;2.00;1.90;;;;;;;;;;4987177;28;20038;-69
2022/08/20 03:41:01;;;;;;;2.17;1.70;;;;;;;;;;4984497;28;20418;-67
2022/08/20 03:43:26;;;;;;;2.28;2.10;;;;;;;;;;4981188;28;20365;-67
2022/08/20 03:45:51;;;;;;;2.00;1.90;;;;;;;;;;4981014;28;20045;-69
2022/08/20 03:48:18;;;;;;;2.15;2.00;;;;;;;;;;4981206;28;20038;-69
2022/08/20 03:50:43;;;;;;;1.65;1.65;;;;;;;;;;4980789;28;20147;-69
2022/08/20 03:53:11;;;;;;;1.63;1.60;;;;;;;;;;4986736;28;20488;-69
2022/08/20 03:55:36;;;;;;;1.90;1.80;;;;;;;;;;4985917;28;20058;-69
2022/08/20 03:58:02;;;;;;;1.45;1.45;;;;;;;;;;4986424;28;20156;-70
2022/08/20 04:00:32;;;;;;;1.85;1.75;;;;;;;;;;4986080;28;20034;-68
2022/08/20 04:02:59;;;;;;;1.83;1.73;;;;;;;;;;4986336;28;20481;-68
2022/08/20 04:05:24;;;;;;;1.45;1.45;;;;;;;;;;4984946;28;20034;-68
2022/08/20 04:07:50;;;;;;;1.98;1.88;;;;;;;;;;4983610;28;20034;-69
2022/08/20 04:10:16;;;;;;;1.88;1.70;;;;;;;;;;4982216;28;20030;-68
2022/08/20 04:12:41;;;;;;;1.92;1.83;;;;;;;;;;4985714;28;20637;-68
2022/08/20 04:15:08;;;;;;;1.90;1.65;;;;;;;;;;4987037;28;20030;-68
2022/08/20 04:17:33;;;;;;;1.80;1.70;;;;;;;;;;4982151;28;20041;-68
2022/08/20 04:20:01;;;;;;;2.05;1.95;;;;;;;;;;4967483;28;20030;-69
2022/08/20 04:22:26;;;;;;;2.15;2.05;;;;;;;;;;4983337;28;20590;-69
2022/08/20 04:24:52;;;;;;;1.80;1.73;;;;;;;;;;4981271;28;20546;-69
2022/08/20 04:27:18;;;;;;;1.30;1.30;;;;;;;;;;4983708;28;20432;-68
2022/08/20 04:29:43;;;;;;;1.85;1.80;;;;;;;;;;4985443;28;20030;-69
2022/08/20 04:32:08;;;;;;;2.20;2.08;;;;;;;;;;4981176;28;20080;-68
2022/08/20 04:34:34;;;;;;;1.42;1.42;;;;;;;;;;4980888;28;20413;-69
2022/08/20 04:36:59;;;;;;;1.85;1.75;;;;;;;;;;4980584;28;20659;-69
2022/08/20 04:39:25;;;;;;;2.15;2.05;;;;;;;;;;4985446;28;20062;-68
2022/08/20 04:41:51;;;;;;;2.00;1.92;;;;;;;;;;4984718;28;20038;-69
2022/08/20 04:44:16;;;;;;;2.03;1.92;;;;;;;;;;4981405;28;20053;-68
2022/08/20 04:46:42;;;;;;;2.10;2.00;;;;;;;;;;4981241;28;20030;-69
2022/08/20 04:49:07;;;;;;;2.25;2.15;;;;;;;;;;4981992;28;20108;-69
2022/08/20 04:51:32;;;;;;;2.33;2.22;;;;;;;;;;4980213;28;20042;-68
2022/08/20 04:53:59;;;;;;;2.42;1.98;;;;;;;;;;4984456;28;20031;-68
2022/08/20 04:56:26;;;;;;;1.67;1.67;;;;;;;;;;4985500;28;20388;-68
2022/08/20 04:58:53;;;;;;;2.50;2.40;;;;;;;;;;4981292;28;20018;-70
2022/08/20 05:01:18;;;;;;;2.20;2.00;;;;;;;;;;4980579;28;20523;-69
2022/08/20 05:03:46;;;;;;;2.15;2.05;;;;;;;;;;4980853;28;20066;-69
2022/08/20 05:06:11;;;;;;;1.92;1.83;;;;;;;;;;4985883;28;20048;-68
2022/08/20 05:08:37;;;;;;;2.30;2.10;;;;;;;;;;4985480;28;20022;-68
2022/08/20 05:11:03;;;;;;;1.80;1.70;;;;;;;;;;4985372;28;20033;-68
2022/08/20 05:13:28;;;;;;;2.03;1.92;;;;;;;;;;4983987;28;20149;-70
2022/08/20 05:15:55;;;;;;;2.05;1.95;;;;;;;;;;4981214;28;20033;-68
2022/08/20 05:18:21;;;;;;;1.88;1.80;;;;;;;;;;4980115;28;20038;-69
2022/08/20 05:20:47;;;;;;;1.83;1.83;;;;;;;;;;4980450;28;20488;-70
2022/08/20 05:23:14;;;;;;;1.88;1.77;;;;;;;;;;4983132;28;20153;-70
2022/08/20 05:25:40;;;;;;;1.92;1.90;;;;;;;;;;4984435;28;20513;-70
2022/08/20 05:28:11;;;;;;;2.22;2.03;;;;;;;;;;4984036;28;20022;-70
2022/08/20 05:30:38;;;;;;;1.90;1.55;;;;;;;;;;4984084;28;20487;-70
2022/08/20 05:33:04;;;;;;;1.45;1.45;;;;;;;;;;4982918;28;20046;-68
2022/08/20 05:35:32;;;;;;;2.10;2.00;;;;;;;;;;4983464;28;20030;-68
2022/08/20 05:37:57;;;;;;;1.58;1.48;;;;;;;;;;4979814;28;20034;-69
2022/08/20 05:40:23;;;;;;;2.10;2.00;;;;;;;;;;4980506;28;20041;-68
2022/08/20 05:42:49;;;;;;;2.03;1.92;;;;;;;;;;4980315;28;20038;-69
2022/08/20 05:45:15;;;;;;;2.65;1.90;;;;;;;;;;4985157;28;20423;-68
2022/08/20 05:47:41;;;;;;;1.67;1.60;;;;;;;;;;4983898;28;20532;-68
2022/08/20 05:50:07;;;;;;;1.83;1.77;;;;;;;;;;4984759;28;20033;-69
2022/08/20 05:52:32;;;;;;;2.05;1.90;;;;;;;;;;4983490;28;20053;-69
2022/08/20 05:54:57;;;;;;;1.88;1.77;;;;;;;;;;4984928;28;20035;-68
2022/08/20 05:57:23;;;;;;;1.80;1.75;;;;;;;;;;4983157;28;20080;-68
2022/08/20 05:59:48;;;;;;;2.08;1.83;;;;;;;;;;4984752;28;20945;-68
2022/08/20 06:04:57;;;;;;;2.00;1.90;;;;;;;;;;4983040;28;20503;-69
2022/08/20 06:07:22;;;;;;;1.70;1.60;;;;;;;;;;4944132;28;20034;-69
2022/08/20 06:09:48;;;;;;;2.47;2.38;;;;;;;;;;4979447;28;20748;-69
2022/08/20 06:12:15;;;;;;;1.90;1.80;;;;;;;;;;4964757;28;20030;-70
2022/08/20 06:14:41;;;;;;;3.97;1.75;;;;;;;;;;4983881;28;20469;-70
2022/08/20 06:17:09;;;;;;;2.40;2.20;;;;;;;;;;4987190;28;20037;-70
2022/08/20 06:19:35;;;;;;;2.13;1.90;;;;;;;;;;4987101;28;20030;-68
2022/08/20 06:22:01;;;;;;;1.98;1.60;;;;;;;;;;4987296;28;20400;-73
2022/08/20 06:24:26;;;;;;;1.60;1.50;;;;;;;;;;4982291;28;20031;-68
2022/08/20 06:26:59;;;;;;;1.80;1.70;;;;;;;;;;4965927;28;20381;-70
2022/08/20 06:29:24;;;;;;;2.15;1.80;;;;;;;;;;4968717;28;20045;-70
2022/08/20 06:31:50;;;;;;;2.03;1.92;;;;;;;;;;4986268;28;20065;-70
2022/08/20 06:34:17;;;;;;;1.60;1.60;;;;;;;;;;4985636;28;20031;-71
2022/08/20 06:36:45;;;;;;;2.03;1.92;;;;;;;;;;4985022;28;20026;-72
2022/08/20 06:39:14;;;;;;;2.13;2.03;;;;;;;;;;4985996;28;20448;-69
2022/08/20 06:41:40;;;;;;;2.17;1.60;;;;;;;;;;4986716;28;20030;-70
2022/08/20 06:44:09;;;;;;;1.77;1.67;;;;;;;;;;4983857;28;20033;-70
2022/08/20 06:46:35;;;;;;;2.50;2.33;;;;;;;;;;4982395;28;20577;-69
2022/08/20 06:49:01;;;;;;;1.83;1.73;;;;;;;;;;4983649;28;20026;-70
2022/08/20 06:51:26;;;;;;;2.20;2.08;;;;;;;;;;4987277;28;20592;-69
2022/08/20 06:53:51;;;;;;;1.95;1.73;;;;;;;;;;4971710;28;20129;-70
2022/08/20 06:56:17;;;;;;;2.08;1.98;;;;;;;;;;4988345;28;20452;-70
2022/08/20 06:58:42;;;;;;;1.73;1.63;;;;;;;;;;4986780;28;20389;-70
2022/08/20 07:01:08;;;;;;;1.95;1.60;;;;;;;;;;4987538;28;20469;-71
2022/08/20 07:03:34;;;;;;;1.70;1.60;;;;;;;;;;4982803;28;20027;-69
2022/08/20 07:05:59;;;;;;;1.63;1.63;;;;;;;;;;4984232;28;20034;-70
2022/08/20 07:08:24;;;;;;;1.77;1.67;;;;;;;;;;4986026;28;20089;-70
2022/08/20 07:10:49;;;;;;;1.40;1.40;;;;;;;;;;4987969;28;20473;-69
2022/08/20 07:13:15;;;;;;;1.80;1.70;;;;;;;;;;4985891;28;20389;-71
2022/08/20 07:15:40;;;;;;;1.70;1.60;;;;;;;;;;4985288;28;20038;-70
2022/08/20 07:18:06;;;;;;;2.88;2.00;;;;;;;;;;4981898;28;20152;-70
2022/08/20 07:20:32;;;;;;;2.55;2.22;;;;;;;;;;4981903;28;20116;-70
2022/08/20 07:22:59;;;;;;;1.95;1.80;;;;;;;;;;4981186;28;20273;-72
2022/08/20 07:25:24;;;;;;;1.60;1.50;;;;;;;;;;4964487;28;20121;-72
2022/08/20 07:27:50;;;;;;;1.55;1.50;;;;;;;;;;4980626;28;20601;-70
2022/08/20 07:33:01;;;;;;;1.60;1.52;;;;;;;;;;4981501;28;20061;-65
2022/08/20 07:35:26;;;;;;;1.90;1.80;;;;;;;;;;4985214;28;20042;-62
2022/08/20 07:37:55;;;;;;;1.67;1.58;;;;;;;;;;4986588;28;20525;-63
2022/08/20 07:40:22;;;;;;;1.95;1.85;;;;;;;;;;4984209;28;20058;-68
2022/08/20 07:42:49;;;;;;;2.08;1.40;;;;;;;;;;4982438;28;20034;-62
2022/08/20 07:45:17;;;;;;;1.83;1.73;;;;;;;;;;4984754;28;20092;-68
2022/08/20 07:47:42;;;;;;;2.40;2.22;;;;;;;;;;4981838;28;20034;-61
2022/08/20 07:50:09;;;;;;;1.80;1.70;;;;;;;;;;4982519;28;20429;-72
2022/08/20 07:52:34;;;;;;;1.63;1.58;;;;;;;;;;4984761;28;20042;-71
2022/08/20 07:55:01;;;;;;;1.83;1.73;;;;;;;;;;4986179;28;20042;-72
2022/08/20 07:57:26;;;;;;;2.08;1.98;;;;;;;;;;4985827;28;20034;-72
2022/08/20 07:59:52;;;;;;;1.55;1.50;;;;;;;;;;4984650;28;20026;-66
2022/08/20 08:02:17;;;;;;;1.77;1.60;;;;;;;;;;4981772;28;20034;-67
2022/08/20 08:04:42;;;;;;;1.92;1.83;;;;;;;;;;4981322;28;20908;-68
2022/08/20 08:07:08;;;;;;;1.58;1.58;;;;;;;;;;4981807;28;20026;-67
2022/08/20 08:09:33;;;;;;;1.67;1.58;;;;;;;;;;4979868;28;20651;-67
2022/08/20 08:12:01;;;;;;;1.90;1.80;;;;;;;;;;4981196;28;20054;-66
2022/08/20 08:14:31;;;;;;;1.48;1.48;;;;;;;;;;4985484;28;20065;-68
2022/08/20 08:16:57;;;;;;;1.65;1.48;;;;;;;;;;4984571;28;20034;-68
2022/08/20 08:19:23;;;;;;;1.60;1.50;;;;;;;;;;4985408;28;20374;-68
2022/08/20 08:21:49;;;;;;;1.60;1.60;;;;;;;;;;4985570;28;20559;-68
2022/08/20 08:24:16;;;;;;;1.42;1.42;;;;;;;;;;4985968;28;20041;-67
2022/08/20 08:26:42;;;;;;;1.85;1.75;;;;;;;;;;4985006;28;20057;-67
2022/08/20 08:29:07;;;;;;;1.83;1.73;;;;;;;;;;4982590;28;20118;-67
2022/08/20 08:31:33;;;;;;;1.58;1.52;;;;;;;;;;4984724;28;20392;-68
2022/08/20 08:33:58;;;;;;;1.48;1.48;;;;;;;;;;4985223;28;20069;-67
2022/08/20 08:36:26;;;;;;;1.50;1.50;;;;;;;;;;4984624;28;20030;-68
2022/08/20 08:38:53;;;;;;;1.33;1.33;;;;;;;;;;4985383;28;20027;-67
2022/08/20 08:41:23;;;;;;;1.63;1.52;;;;;;;;;;4984897;28;20101;-68
2022/08/20 08:43:52;;;;;;;1.88;1.77;;;;;;;;;;4984974;28;20058;-68
2022/08/20 08:46:21;;;;;;;2.10;1.80;;;;;;;;;;4985279;28;20427;-69
2022/08/20 08:48:48;;;;;;;1.95;1.58;;;;;;;;;;4984018;28;20056;-63
2022/08/20 08:51:21;;;;;;;1.63;1.63;;;;;;;;;;4985656;28;20030;-66
2022/08/20 08:53:49;;;;;;;1.55;1.52;;;;;;;;;;4986615;28;20038;-66
2022/08/20 08:56:15;;;;;;;1.92;1.83;;;;;;;;;;4989146;28;20042;-67
2022/08/20 08:58:43;;;;;;;1.88;1.73;;;;;;;;;;4984727;28;20030;-67
2022/08/20 09:01:14;;;;;;;1.95;1.80;;;;;;;;;;4984996;28;20023;-66
2022/08/20 09:03:42;;;;;;;3.55;1.80;;;;;;;;;;4983134;28;20176;-67
2022/08/20 09:06:10;;;;;;;2.15;1.50;;;;;;;;;;4984732;28;20313;-66
2022/08/20 09:08:40;;;;;;;1.50;1.40;;;;;;;;;;4984420;28;20031;-65
2022/08/20 09:11:07;;;;;;;1.30;1.30;;;;;;;;;;4984467;28;20022;-66
2022/08/20 09:13:32;;;;;;;1.50;1.50;;;;;;;;;;4984349;28;20022;-66
2022/08/20 09:15:57;;;;;;;1.42;1.42;;;;;;;;;;4984131;28;20030;-66
2022/08/20 09:18:23;;;;;;;1.60;1.50;;;;;;;;;;4980447;28;20033;-64
2022/08/20 09:20:48;;;;;;;1.70;1.60;;;;;;;;;;4979719;28;20069;-66
2022/08/20 09:23:13;;;;;;;1.67;1.58;;;;;;;;;;4983541;28;20042;-65
2022/08/20 09:25:38;;;;;;;1.70;1.70;;;;;;;;;;4979232;28;20038;-63
2022/08/20 09:28:03;;;;;;;1.70;1.30;;;;;;;;;;4979504;28;20030;-66
2022/08/20 09:30:29;;;;;;;1.88;1.73;;;;;;;;;;4983001;28;20513;-66
2022/08/20 09:32:57;;;;;;;1.52;1.52;;;;;;;;;;4979830;28;20096;-67
2022/08/20 09:35:22;;;;;;;1.40;1.40;;;;;;;;;;4981063;28;20022;-66
2022/08/20 09:37:47;;;;;;;1.70;1.60;;;;;;;;;;4984615;28;20101;-68
2022/08/20 09:40:12;;;;;;;1.58;1.58;;;;;;;;;;4982159;28;20041;-68
2022/08/20 09:42:38;;;;;;;1.48;1.48;;;;;;;;;;4980327;28;20489;-68
2022/08/20 09:45:04;;;;;;;1.67;1.60;;;;;;;;;;4982086;28;20454;-70
2022/08/20 09:47:29;;;;;;;1.58;1.48;;;;;;;;;;4983046;28;20412;-70
2022/08/20 09:49:55;;;;;;;1.63;1.52;;;;;;;;;;4957507;28;20018;-69
2022/08/20 09:52:25;;;;;;;1.58;1.45;;;;;;;;;;4984329;28;20495;-70
2022/08/20 09:54:53;;;;;;;1.88;1.77;;;;;;;;;;4984377;28;20488;-68
2022/08/20 09:57:19;;;;;;;1.80;1.70;;;;;;;;;;4983522;28;20428;-70
2022/08/20 09:59:46;;;;;;;1.42;1.35;;;;;;;;;;4984488;28;20026;-69
2022/08/20 10:02:11;;;;;;;1.63;1.63;;;;;;;;;;4983333;28;20029;-69
2022/08/20 10:04:37;;;;;;;1.50;1.50;;;;;;;;;;4982369;28;20492;-69
2022/08/20 10:07:05;;;;;;;3.55;1.27;;;;;;;;;;4952710;28;20026;-69
2022/08/20 10:09:32;;;;;;;1.77;1.67;;;;;;;;;;4980426;28;20030;-70
2022/08/20 10:11:57;;;;;;;1.88;1.88;;;;;;;;;;4983238;28;20053;-66
2022/08/20 10:14:22;;;;;;;2.78;2.05;;;;;;;;;;4979360;28;20026;-66
2022/08/20 10:16:53;;;;;;;1.73;1.63;;;;;;;;;;4981734;28;20038;-62
2022/08/20 10:19:18;;;;;;;1.77;1.67;;;;;;;;;;4984936;28;20501;-67
2022/08/20 10:21:44;;;;;;;1.73;1.73;;;;;;;;;;4983929;28;20053;-65
2022/08/20 10:24:09;;;;;;;2.58;1.77;;;;;;;;;;4984186;28;20027;-65
2022/08/20 10:26:36;;;;;;;1.60;1.52;;;;;;;;;;4983533;28;20033;-63
2022/08/20 10:29:01;;;;;;;1.45;1.45;;;;;;;;;;4982971;28;20026;-63
2022/08/20 10:31:27;;;;;;;1.67;1.67;;;;;;;;;;4982588;28;20077;-65
2022/08/20 10:33:52;;;;;;;1.90;1.80;;;;;;;;;;4983413;28;20058;-64
2022/08/20 10:36:18;;;;;;;1.40;1.40;;;;;;;;;;4983618;28;20160;-64
2022/08/20 10:38:43;;;;;;;1.35;1.35;;;;;;;;;;4983579;28;20034;-64
2022/08/20 10:41:10;;;;;;;1.90;1.90;;;;;;;;;;4983681;28;20484;-64
2022/08/20 10:43:35;;;;;;;1.60;1.60;;;;;;;;;;4983832;28;20026;-64
2022/08/20 10:46:00;;;;;;;1.50;1.50;;;;;;;;;;4983604;28;20029;-64
2022/08/20 10:48:26;;;;;;;1.50;1.50;;;;;;;;;;4984591;28;20679;-64
2022/08/20 10:50:51;;;;;;;1.73;1.73;;;;;;;;;;4983476;28;20487;-64
2022/08/20 10:53:17;;;;;;;1.80;1.80;;;;;;;;;;4982377;28;20561;-64
2022/08/20 10:55:42;;;;;;;1.65;1.60;;;;;;;;;;4953116;28;20472;-64
2022/08/20 10:58:07;;;;;;;1.48;1.48;;;;;;;;;;4980287;28;20031;-64
2022/08/20 11:00:34;;;;;;;1.50;1.50;;;;;;;;;;4982497;28;20471;-64
2022/08/20 11:03:02;;;;;;;1.50;1.50;;;;;;;;;;4985890;28;20023;-64
2022/08/20 11:05:27;;;;;;;1.23;1.23;;;;;;;;;;4985249;28;20033;-64
2022/08/20 11:07:53;;;;;;;1.33;1.33;;;;;;;;;;4983519;28;20026;-63
2022/08/20 11:10:19;;;;;;;1.50;1.50;;;;;;;;;;4983265;28;20033;-63
2022/08/20 11:12:45;;;;;;;2.03;1.70;;;;;;;;;;4985502;28;20409;-64
2022/08/20 11:15:10;;;;;;;1.95;1.95;;;;;;;;;;4970190;28;20037;-63
2022/08/20 11:17:38;;;;;;;1.83;1.83;;;;;;;;;;4960336;28;20057;-64
2022/08/20 11:20:05;;;;;;;1.70;1.70;;;;;;;;;;4987557;28;20457;-64
2022/08/20 11:22:30;;;;;;;1.55;1.55;;;;;;;;;;4987269;28;20042;-63
2022/08/20 11:24:56;;;;;;;1.60;1.50;;;;;;;;;;4987891;28;20618;-63
2022/08/20 11:27:26;;;;;;;1.88;1.80;;;;;;;;;;4987157;28;20373;-64
2022/08/20 11:29:51;;;;;;;1.70;1.70;;;;;;;;;;4986821;28;20113;-64
2022/08/20 11:32:17;;;;;;;1.33;1.33;;;;;;;;;;4986417;28;20484;-64
2022/08/20 11:34:42;;;;;;;1.50;1.50;;;;;;;;;;4985613;28;20776;-64
2022/08/20 11:37:10;;;;;;;1.50;1.40;;;;;;;;;;4981817;28;20029;-64
2022/08/20 11:39:35;;;;;;;1.55;1.55;;;;;;;;;;4982320;28;20104;-64
2022/08/20 11:42:01;;;;;;;1.75;1.38;;;;;;;;;;4984194;28;20046;-64
2022/08/20 11:44:26;;;;;;;1.25;1.25;;;;;;;;;;4987482;28;20030;-64
2022/08/20 11:46:52;;;;;;;1.45;1.45;;;;;;;;;;4984099;28;20129;-64
2022/08/20 11:49:17;;;;;;;1.20;1.20;;;;;;;;;;4982125;28;20108;-64
2022/08/20 11:51:42;;;;;;;1.35;1.35;;;;;;;;;;4981607;28;20072;-61
2022/08/20 11:54:07;;;;;;;1.70;1.70;;;;;;;;;;4966189;28;20274;-65
2022/08/20 11:56:32;;;;;;;1.58;1.55;;;;;;;;;;4968281;28;20027;-65
2022/08/20 11:58:58;;;;;;;2.17;1.80;;;;;;;;;;4972981;28;20036;-68
2022/08/20 12:01:23;;;;;;;1.58;1.48;;;;;;;;;;4986558;28;20125;-64
2022/08/20 12:03:48;;;;;;;1.65;1.65;;;;;;;;;;4986942;28;20033;-65
2022/08/20 12:06:14;;;;;;;1.60;1.60;;;;;;;;;;4970013;28;20026;-63
2022/08/20 12:08:39;;;;;;;1.63;1.63;;;;;;;;;;4981602;28;20030;-66
2022/08/20 12:11:06;;;;;;;2.10;2.00;;;;;;;;;;4982518;28;20376;-66
2022/08/20 12:13:32;;;;;;;1.83;1.77;;;;;;;;;;4983685;28;20040;-67
2022/08/20 12:15:58;;;;;;;1.75;1.75;;;;;;;;;;4988866;28;20432;-67
2022/08/20 12:18:23;;;;;;;1.58;1.58;;;;;;;;;;4985668;28;20033;-66
2022/08/20 12:20:48;;;;;;;2.13;2.08;;;;;;;;;;4983674;28;20137;-66
2022/08/20 12:23:13;;;;;;;1.65;1.65;;;;;;;;;;4985157;28;20394;-67
2022/08/20 12:25:39;;;;;;;1.60;1.60;;;;;;;;;;4986575;28;20057;-67
2022/08/20 12:28:04;;;;;;;1.90;1.80;;;;;;;;;;4983137;28;20029;-66
2022/08/20 12:30:30;;;;;;;1.75;1.75;;;;;;;;;;4980358;28;20047;-65
2022/08/20 12:32:56;;;;;;;1.92;1.85;;;;;;;;;;4983833;28;20469;-66
2022/08/20 12:35:21;;;;;;;1.58;1.48;;;;;;;;;;4985063;28;20088;-66
2022/08/20 12:37:47;;;;;;;1.52;1.52;;;;;;;;;;4985157;28;20030;-66
2022/08/20 12:40:17;;;;;;;1.67;1.67;;;;;;;;;;4984943;28;20109;-66
2022/08/20 12:42:43;;;;;;;1.70;1.70;;;;;;;;;;4984668;28;20033;-66
2022/08/20 12:45:09;;;;;;;2.20;2.10;;;;;;;;;;4983848;28;20624;-66
2022/08/20 12:47:36;;;;;;;1.95;1.85;;;;;;;;;;4980048;28;20074;-66
2022/08/20 12:50:21;;;;;;;2.55;2.35;;;;;;;;;;4980621;28;20118;-66
2022/08/20 12:52:47;;;;;;;2.25;2.15;;;;;;;;;;4981418;28;20205;-66
2022/08/20 12:55:14;;;;;;;2.47;2.38;;;;;;;;;;4981051;28;20113;-67
2022/08/20 12:57:40;;;;;;;2.00;1.90;;;;;;;;;;4980605;28;20375;-66
2022/08/20 13:00:07;;;;;;;2.20;2.10;;;;;;;;;;4980806;28;20034;-66
2022/08/20 13:02:33;;;;;;;1.90;1.90;;;;;;;;;;4980661;28;20060;-67
2022/08/20 13:04:58;;;;;;;2.22;2.15;;;;;;;;;;4985442;28;20105;-66
2022/08/20 13:07:24;;;;;;;2.25;2.17;;;;;;;;;;4985709;28;20061;-67
2022/08/20 13:09:49;;;;;;;1.95;1.85;;;;;;;;;;4983864;28;20380;-66
2022/08/20 13:12:14;;;;;;;2.20;2.03;;;;;;;;;;4980635;28;20034;-67
2022/08/20 13:14:40;;;;;;;2.03;1.92;;;;;;;;;;4980898;28;20389;-67
2022/08/20 13:17:05;;;;;;;2.25;2.15;;;;;;;;;;4985253;28;20045;-65
2022/08/20 13:19:32;;;;;;;1.70;1.60;;;;;;;;;;4965861;28;20083;-66
2022/08/20 13:21:57;;;;;;;1.73;1.73;;;;;;;;;;4979491;28;20038;-66
2022/08/20 13:24:22;;;;;;;1.73;1.70;;;;;;;;;;4982571;28;20041;-66
2022/08/20 13:26:48;;;;;;;2.33;2.22;;;;;;;;;;4985013;28;20085;-66
2022/08/20 13:29:13;;;;;;;1.65;1.63;;;;;;;;;;4981675;28;20580;-65
2022/08/20 13:31:39;;;;;;;1.95;1.88;;;;;;;;;;4979699;28;20030;-65
2022/08/20 13:34:05;;;;;;;2.10;2.00;;;;;;;;;;4980397;28;20018;-66
2022/08/20 13:36:30;;;;;;;2.22;2.13;;;;;;;;;;4984135;28;20465;-65
2022/08/20 13:38:55;;;;;;;2.10;2.00;;;;;;;;;;4982348;28;20031;-65
2022/08/20 13:41:21;;;;;;;1.73;1.60;;;;;;;;;;4979962;28;20022;-67
2022/08/20 13:43:46;;;;;;;2.15;2.10;;;;;;;;;;4984010;28;20088;-65
2022/08/20 13:46:11;;;;;;;4.25;1.83;;;;;;;;;;4985770;28;20136;-66
2022/08/20 13:48:36;;;;;;;2.15;2.05;;;;;;;;;;4982561;28;20113;-65
2022/08/20 13:51:02;;;;;;;1.55;1.55;;;;;;;;;;4983090;28;20034;-66
2022/08/20 13:53:27;;;;;;;1.50;1.50;;;;;;;;;;4984704;28;20578;-66
2022/08/20 13:55:52;;;;;;;1.65;1.65;;;;;;;;;;4984755;28;20073;-66
2022/08/20 13:58:17;;;;;;;1.40;1.40;;;;;;;;;;4984283;28;20038;-65
2022/08/20 14:00:43;;;;;;;1.88;1.88;;;;;;;;;;4984532;28;20062;-66
2022/08/20 14:03:09;;;;;;;1.95;1.85;;;;;;;;;;4983922;28;20030;-66
2022/08/20 14:05:34;;;;;;;1.95;1.95;;;;;;;;;;4985483;28;20627;-66
2022/08/20 14:08:11;;;;;;;1.50;1.50;;;;;;;;;;4984953;28;20037;-66
2022/08/20 14:10:37;;;;;;;1.58;1.50;;;;;;;;;;4985301;28;20082;-66
2022/08/20 14:13:02;;;;;;;1.58;1.58;;;;;;;;;;4983517;28;20117;-66
2022/08/20 14:15:28;;;;;;;1.60;1.60;;;;;;;;;;4985412;28;20038;-67
2022/08/20 14:17:54;;;;;;;1.58;1.45;;;;;;;;;;4982571;28;20041;-66
2022/08/20 14:20:21;;;;;;;1.52;1.52;;;;;;;;;;4985006;28;20022;-68
2022/08/20 14:22:46;;;;;;;1.33;1.33;;;;;;;;;;4984130;28;20039;-66
2022/08/20 14:25:12;;;;;;;1.60;1.60;;;;;;;;;;4967273;28;20030;-67
2022/08/20 14:27:37;;;;;;;1.73;1.73;;;;;;;;;;4983396;28;20105;-64
2022/08/20 14:30:04;;;;;;;1.90;1.80;;;;;;;;;;4984100;28;20436;-68
2022/08/20 14:32:29;;;;;;;2.10;2.00;;;;;;;;;;4984740;28;20490;-66
2022/08/20 14:34:57;;;;;;;1.52;1.50;;;;;;;;;;4989536;28;20065;-67
2022/08/20 14:37:24;;;;;;;1.60;1.60;;;;;;;;;;4989132;28;20536;-66
2022/08/20 14:39:52;;;;;;;1.63;1.63;;;;;;;;;;4989252;28;20533;-66
2022/08/20 14:42:17;;;;;;;3.92;1.95;;;;;;;;;;4963215;28;20034;-66